.
WxDataArchive / Data Records for 2012-04-03
2012-04-02 April 2012 2012-04-04

Data Records for Tuesday, 03 April 2012

Time	Temp	Chill	HIndex	Humid	Dewpt	 Wind 	HiWind	WindDir	Rain 	Barom 
-----	----	-----	------	-----	-----	------	------	-------	-----	----- 
00:00	43.3	43.3	43.3	67	33.1	2	6	112	0.00	29.986 
00:05	43.2	43.2	43.2	67	33.0	2	6	68	0.00	29.986 
00:10	43.1	43.1	43.1	68	33.3	2	5	112	0.00	29.986 
00:15	42.9	42.9	42.9	67	32.7	2	5	68	0.00	29.987 
00:20	42.9	42.9	42.9	67	32.7	2	5	90	0.00	29.987 
00:25	42.8	42.8	42.8	67	32.6	2	4	90	0.00	29.987 
00:30	42.6	42.6	42.6	67	32.4	1	4	90	0.00	29.994 
00:35	42.6	42.6	42.6	67	32.4	2	5	90	0.00	29.994 
00:40	42.5	42.5	42.5	67	32.3	2	3	90	0.00	29.994 
00:45	42.3	42.3	42.3	67	32.1	1	3	90	0.00	30.000 
00:50	42.2	42.2	42.2	66	31.7	1	4	90	0.00	30.000 
00:55	42.2	42.2	42.2	66	31.7	2	4	90	0.00	30.000 
01:00	42.2	42.2	42.2	66	31.7	2	4	90	0.00	30.001 
01:05	42.1	42.1	42.1	66	31.6	1	4	112	0.00	30.001 
01:10	41.9	41.9	41.9	66	31.4	2	4	90	0.00	30.001 
01:15	41.9	41.9	41.9	66	31.4	1	3	90	0.00	29.996 
01:20	41.9	41.9	41.9	66	31.4	1	4	90	0.00	29.996 
01:25	41.8	41.8	41.8	65	30.9	2	5	112	0.00	29.996 
01:30	41.8	41.8	41.8	65	30.9	1	4	90	0.00	29.997 
01:35	41.8	41.8	41.8	65	30.9	1	3	90	0.00	29.997 
01:40	41.6	41.6	41.6	65	30.7	1	4	90	0.00	29.997 
01:45	41.6	41.6	41.6	65	30.7	2	4	90	0.00	29.987 
01:50	41.6	41.6	41.6	65	30.7	2	4	90	0.00	29.987 
01:55	41.6	41.6	41.6	65	30.7	2	4	90	0.00	29.987 
02:00	41.6	41.6	41.6	65	30.7	2	4	112	0.00	29.979 
02:05	41.6	41.6	41.6	65	30.7	2	5	68	0.00	29.979 
02:10	41.6	41.6	41.6	66	31.1	1	4	90	0.00	29.979 
02:15	41.6	41.6	41.6	66	31.1	1	3	90	0.00	29.976 
02:20	41.6	41.6	41.6	66	31.1	1	5	90	0.00	29.976 
02:25	41.8	41.8	41.8	66	31.3	2	4	90	0.00	29.976 
02:30	41.9	41.9	41.9	66	31.4	2	5	90	0.00	29.965 
02:35	42.2	42.2	42.2	66	31.7	2	4	90	0.00	29.965 
02:40	42.2	42.2	42.2	65	31.3	1	3	90	0.00	29.965 
02:45	42.2	42.2	42.2	66	31.7	2	4	90	0.00	29.961 
02:50	42.1	42.1	42.1	66	31.6	1	4	45	0.00	29.961 
02:55	42.1	42.1	42.1	67	31.9	1	2	45	0.00	29.961 
03:00	41.9	41.9	41.9	67	31.8	1	3	45	0.00	29.962 
03:05	41.9	41.9	41.9	68	32.1	0	2	45	0.00	29.962 
03:10	41.8	41.8	41.8	68	32.0	0	2	45	0.00	29.962 
03:15	41.8	41.8	41.8	69	32.4	0	2	45	0.00	29.962 
03:20	41.9	41.9	41.9	70	32.8	0	2	45	0.00	29.962 
03:25	41.9	41.9	41.9	70	32.8	1	3	45	0.00	29.962 
03:30	42.1	42.1	42.1	69	32.7	1	4	112	0.00	29.953 
03:35	42.2	42.2	42.2	70	33.1	1	3	112	0.00	29.953 
03:40	42.3	42.3	42.3	70	33.2	1	4	112	0.00	29.953 
03:45	42.3	42.3	42.3	69	32.9	1	3	112	0.00	29.942 
03:50	42.3	42.3	42.3	69	32.9	1	3	90	0.00	29.942 
03:55	42.3	42.3	42.3	70	33.2	2	5	112	0.00	29.942 
04:00	42.3	42.3	42.3	70	33.2	1	4	68	0.00	29.930 
04:05	42.3	42.3	42.3	71	33.6	1	3	112	0.00	29.930 
04:10	42.5	42.5	42.5	71	33.8	1	2	112	0.00	29.930 
04:15	42.6	42.6	42.6	71	33.9	0	2	112	0.00	29.933 
04:20	42.8	42.8	42.8	71	34.1	1	3	112	0.00	29.933 
04:25	42.9	42.9	42.9	71	34.2	0	3	112	0.00	29.933 
04:30	43.1	43.1	43.1	71	34.3	0	2	112	0.00	29.932 
04:35	43.1	43.1	43.1	71	34.3	1	3	112	0.00	29.932 
04:40	43.1	43.1	43.1	71	34.3	1	4	112	0.00	29.932 
04:45	43.1	43.1	43.1	72	34.7	1	3	112	0.00	29.927 
04:50	43.1	43.1	43.1	72	34.7	1	4	112	0.00	29.927 
04:55	42.9	42.9	42.9	71	34.2	2	4	90	0.00	29.927 
05:00	42.9	42.9	42.9	72	34.5	1	4	90	0.00	29.933 
05:05	43.1	43.1	43.1	71	34.3	2	4	90	0.00	29.933 
05:10	43.1	43.1	43.1	71	34.3	2	4	112	0.00	29.933 
05:15	43.1	43.1	43.1	71	34.3	2	6	90	0.00	29.919 
05:20	43.1	43.1	43.1	71	34.3	2	5	90	0.00	29.919 
05:25	43.2	43.2	43.2	71	34.4	2	5	90	0.00	29.919 
05:30	43.3	43.3	43.3	70	34.2	3	6	68	0.00	29.909 
05:35	43.3	43.3	43.3	70	34.2	1	5	90	0.00	29.909 
05:40	43.5	43.5	43.5	70	34.4	1	4	112	0.00	29.909 
05:45	43.5	43.5	43.5	70	34.4	1	4	112	0.00	29.910 
05:50	43.6	43.6	43.6	70	34.5	1	4	68	0.00	29.910 
05:55	43.6	43.6	43.6	69	34.1	2	4	90	0.00	29.910 
06:00	43.8	43.8	43.8	69	34.3	2	4	112	0.00	29.903 
06:05	43.8	43.8	43.8	69	34.3	0	2	90	0.00	29.903 
06:10	43.8	43.8	43.8	69	34.3	1	3	90	0.00	29.903 
06:15	43.8	43.8	43.8	69	34.3	1	3	90	0.00	29.896 
06:20	43.8	43.8	43.8	69	34.3	2	5	90	0.00	29.896 
06:25	43.8	43.8	43.8	69	34.3	2	4	90	0.00	29.896 
06:30	43.8	43.8	43.8	69	34.3	1	3	90	0.00	29.895 
06:35	43.8	43.8	43.8	69	34.3	1	3	90	0.00	29.895 
06:40	43.8	43.8	43.8	69	34.3	1	2	90	0.00	29.895 
06:45	43.8	43.8	43.8	70	34.7	2	4	90	0.00	29.893 
06:50	43.8	43.8	43.8	70	34.7	0	2	68	0.00	29.893 
06:55	43.9	43.9	43.9	71	35.1	0	1	68	0.00	29.893 
07:00	44.1	44.1	44.1	70	35.0	1	3	68	0.00	29.898 
07:05	44.1	44.1	44.1	70	35.0	1	2	68	0.00	29.898 
07:10	44.2	44.2	44.2	71	35.4	1	2	68	0.00	29.898 
07:15	44.3	44.3	44.3	70	35.1	1	3	68	0.00	29.901 
07:20	44.3	44.3	44.3	70	35.1	1	4	112	0.00	29.901 
07:25	44.3	44.3	44.3	70	35.1	1	3	112	0.00	29.901 
07:30	44.3	44.3	44.3	71	35.5	1	4	135	0.00	29.909 
07:35	44.5	44.5	44.5	71	35.7	1	3	135	0.00	29.909 
07:40	44.5	44.5	44.5	71	35.7	0	3	135	0.00	29.909 
07:45	44.6	44.6	44.6	72	36.1	0	1	135	0.00	29.912 
07:50	44.6	44.6	44.6	71	35.8	1	5	135	0.00	29.912 
07:55	44.6	44.6	44.6	71	35.8	2	5	135	0.00	29.912 
08:00	44.6	44.6	44.6	71	35.8	2	5	90	0.00	29.925 
08:05	44.6	44.6	44.6	71	35.8	1	3	90	0.00	29.925 
08:10	44.8	44.8	44.8	71	36.0	0	3	90	0.00	29.925 
08:15	44.8	44.8	44.8	71	36.0	2	4	90	0.00	29.929 
08:20	44.8	44.8	44.8	71	36.0	1	5	90	0.00	29.929 
08:25	44.8	44.8	44.8	71	36.0	2	4	90	0.00	29.929 
08:30	44.8	44.8	44.8	71	36.0	2	5	90	0.00	29.928 
08:35	44.8	44.8	44.8	74	37.0	1	4	90	0.00	29.928 
08:40	44.9	44.9	44.9	77	38.1	0	1	90	0.00	29.928 
08:45	44.8	44.8	44.8	78	38.4	1	3	90	0.01	29.932 
08:50	44.6	44.6	44.6	79	38.5	1	4	90	0.00	29.932 
08:55	44.8	44.8	44.8	80	39.0	0	2	90	0.00	29.932 
09:00	44.9	44.9	44.9	80	39.1	1	3	90	0.00	29.933 
09:05	45.1	45.1	45.1	80	39.3	0	1	90	0.00	29.933 
09:10	45.1	45.1	45.1	80	39.3	0	2	90	0.00	29.933 
09:15	45.1	45.1	45.1	78	38.7	0	3	68	0.00	29.962 
09:20	45.2	45.2	45.2	79	39.1	0	2	90	0.00	29.962 
09:25	45.1	45.1	45.1	76	38.0	1	5	112	0.00	29.962 
09:30	45.1	45.1	45.1	76	38.0	1	4	22	0.00	29.967 
09:35	44.9	44.9	44.9	75	37.5	2	5	112	0.00	29.967 
09:40	45.1	45.1	45.1	77	38.3	2	5	135	0.00	29.967 
09:45	45.1	45.1	45.1	77	38.3	1	4	90	0.00	29.965 
09:50	45.2	45.2	45.2	76	38.1	2	7	90	0.00	29.965 
09:55	45.4	45.4	45.4	77	38.6	2	7	68	0.00	29.965 
10:00	45.8	45.8	45.8	77	39.0	1	5	112	0.00	29.949 
10:05	46.1	46.1	46.1	76	39.0	1	3	112	0.00	29.949 
10:10	46.5	46.5	46.5	77	39.7	2	4	112	0.00	29.949 
10:15	46.8	46.8	46.8	76	39.6	3	5	112	0.00	29.950 
10:20	47.3	47.3	47.3	74	39.4	3	6	90	0.00	29.950 
10:25	47.6	47.6	47.6	74	39.7	3	6	90	0.00	29.950 
10:30	48.2	48.2	48.2	73	40.0	3	9	90	0.00	29.944 
10:35	49.1	49.1	49.1	71	40.1	3	10	90	0.00	29.944 
10:40	50.1	50.1	50.1	68	40.0	2	7	90	0.00	29.944 
10:45	51.0	51.0	51.0	67	40.4	3	7	112	0.00	29.942 
10:50	51.9	51.9	51.9	66	40.9	3	10	112	0.00	29.942 
10:55	52.8	52.8	52.8	62	40.1	3	7	112	0.00	29.942 
11:00	53.3	53.3	53.3	64	41.4	4	7	112	0.00	29.941 
11:05	53.6	53.6	53.6	62	40.9	3	7	112	0.00	29.941 
11:10	54.4	54.4	54.4	61	41.2	1	4	90	0.00	29.941 
11:15	54.8	54.8	54.8	59	40.7	3	11	112	0.00	29.944 
11:20	55.0	55.0	55.0	61	41.8	3	7	90	0.00	29.944 
11:25	55.1	55.1	55.1	60	41.5	3	6	90	0.00	29.944 
11:30	55.4	55.4	55.4	60	41.7	3	9	112	0.00	29.945 
11:35	55.7	55.7	55.7	59	41.6	3	7	90	0.00	29.945 
11:40	56.3	56.3	56.3	59	42.2	3	6	90	0.00	29.945 
11:45	56.7	56.7	56.7	57	41.6	3	7	90	0.00	29.945 
11:50	57.0	57.0	57.0	57	41.9	2	7	90	0.00	29.945 
11:55	57.0	57.0	57.0	57	41.9	4	9	112	0.00	29.945 
12:00	57.0	57.0	57.0	57	41.9	3	9	90	0.00	29.943 
12:05	57.6	57.6	57.6	57	42.5	2	4	112	0.00	29.943 
12:10	58.6	58.6	58.6	55	42.5	2	6	112	0.00	29.943 
12:15	58.9	58.9	58.9	55	42.8	2	5	112	0.00	29.943 
12:20	59.3	59.3	59.3	57	44.1	2	6	90	0.00	29.943 
12:25	59.5	59.5	59.5	56	43.8	2	4	112	0.00	29.943 
12:30	59.8	59.8	59.8	54	43.1	3	6	90	0.00	29.940 
12:35	60.1	60.1	60.1	54	43.4	2	6	90	0.00	29.940 
12:40	60.9	60.9	60.9	54	44.1	2	4	158	0.00	29.940 
12:45	61.0	61.0	61.0	57	45.7	2	4	112	0.00	29.929 
12:50	61.3	61.3	61.3	52	43.5	2	5	112	0.00	29.929 
12:55	61.5	61.5	61.5	53	44.2	1	6	112	0.00	29.929 
13:00	61.6	61.6	61.6	54	44.8	3	7	112	0.00	29.924 
13:05	61.6	61.6	61.6	54	44.8	2	5	112	0.00	29.924 
13:10	61.8	61.8	61.8	52	44.0	2	5	135	0.00	29.924 
13:15	62.1	62.1	62.1	51	43.8	2	4	112	0.00	29.924 
13:20	62.4	62.4	62.4	53	45.0	2	5	112	0.00	29.924 
13:25	62.9	62.9	62.9	51	44.5	1	5	135	0.00	29.924 
13:30	63.4	63.4	63.4	50	44.4	2	5	90	0.00	29.920 
13:35	63.5	63.5	63.5	51	45.0	2	9	90	0.00	29.920 
13:40	63.7	63.7	63.7	50	44.7	3	6	90	0.00	29.920 
13:45	63.9	63.9	63.9	50	44.9	2	6	90	0.00	29.902 
13:50	64.2	64.2	64.2	49	44.6	3	6	90	0.00	29.902 
13:55	64.3	64.3	64.3	49	44.7	3	7	90	0.00	29.902 
14:00	64.5	64.5	64.5	49	44.9	1	5	112	0.00	29.894 
14:05	65.2	65.2	65.2	49	45.6	1	3	112	0.00	29.894 
14:10	65.8	65.8	65.8	50	46.6	1	4	90	0.00	29.894 
14:15	66.3	66.3	66.3	49	46.6	1	4	135	0.00	29.885 
14:20	66.4	66.4	66.4	48	46.1	1	3	135	0.00	29.885 
14:25	66.8	66.8	66.8	47	45.9	1	6	135	0.00	29.885 
14:30	66.9	66.9	66.9	46	45.4	1	5	112	0.00	29.880 
14:35	66.9	66.9	66.9	46	45.4	1	3	112	0.00	29.880 
14:40	67.1	67.1	67.1	50	47.8	2	5	112	0.00	29.880 
14:45	66.9	66.9	66.9	48	46.6	3	7	90	0.00	29.873 
14:50	67.1	67.1	67.1	50	47.8	2	4	112	0.00	29.873 
14:55	67.6	67.6	67.6	47	46.6	1	4	112	0.00	29.873 
15:00	67.8	67.8	67.8	46	46.3	2	5	90	0.00	29.851 
15:05	67.9	67.9	67.9	48	47.5	2	5	90	0.00	29.851 
15:10	68.3	68.3	68.3	50	48.9	2	5	112	0.00	29.851 
15:15	68.8	68.8	68.8	48	48.3	1	2	112	0.00	29.849 
15:20	69.3	69.3	69.3	48	48.8	1	4	112	0.00	29.849 
15:25	69.4	69.4	69.4	47	48.3	2	4	90	0.00	29.849 
15:30	69.4	69.4	69.4	46	47.7	2	6	112	0.00	29.837 
15:35	69.8	69.8	69.8	46	48.1	1	3	112	0.00	29.837 
15:40	70.1	70.1	70.1	48	49.5	1	4	68	0.00	29.837 
15:45	70.4	70.4	70.4	49	50.3	1	3	68	0.00	29.823 
15:50	70.8	70.8	70.8	50	51.2	1	5	135	0.00	29.823 
15:55	70.9	70.9	70.9	46	49.1	0	3	135	0.00	29.823 
16:00	71.3	71.3	71.3	50	51.7	0	2	315	0.00	29.820 
16:05	71.6	71.6	71.6	46	49.7	1	3	22	0.00	29.820 
16:10	71.8	71.8	71.8	47	50.5	1	3	112	0.00	29.820 
16:15	72.1	72.1	72.1	48	51.3	1	4	248	0.00	29.803 
16:20	72.1	72.1	72.1	46	50.2	2	5	135	0.00	29.803 
16:25	72.0	72.0	72.0	49	51.8	1	6	90	0.00	29.803 
16:30	72.3	72.3	72.3	49	52.1	1	5	112	0.00	29.791 
16:35	72.1	72.1	72.1	47	50.7	2	4	90	0.00	29.791 
16:40	72.1	72.1	72.1	50	52.4	1	5	90	0.00	29.791 
16:45	72.3	72.3	72.3	46	50.3	1	5	248	0.00	29.787 
16:50	72.3	72.3	72.3	50	52.6	1	4	270	0.00	29.787 
16:55	72.5	72.5	72.5	49	52.2	1	3	270	0.00	29.787 
17:00	72.8	72.8	72.8	48	52.0	1	3	45	0.00	29.774 
17:05	73.0	73.0	73.0	48	52.1	1	3	68	0.00	29.774 
17:10	73.3	73.3	73.3	48	52.4	1	4	68	0.00	29.774 
17:15	73.7	73.7	73.7	48	52.8	1	4	248	0.00	29.767 
17:20	74.0	74.0	74.0	47	52.5	0	3	248	0.00	29.767 
17:25	74.4	74.4	74.4	47	52.8	0	3	248	0.00	29.767 
17:30	74.6	74.6	74.6	46	52.4	0	3	248	0.00	29.762 
17:35	74.7	74.7	74.7	45	51.9	1	3	248	0.00	29.762 
17:40	74.9	74.9	74.9	44	51.5	0	3	248	0.00	29.762 
17:45	75.1	75.1	77.6	44	51.7	0	2	112	0.00	29.764 
17:50	75.3	75.3	77.7	43	51.2	1	2	112	0.00	29.764 
17:55	75.1	75.1	77.6	43	51.1	1	3	112	0.00	29.764 
18:00	75.1	75.1	77.6	45	52.3	0	1	135	0.00	29.768 
18:05	75.1	75.1	77.6	44	51.7	0	1	135	0.00	29.768 
18:10	75.1	75.1	77.6	45	52.3	0	1	135	0.00	29.768 
18:15	75.1	75.1	77.6	45	52.3	0	0	---	0.00	29.770 
18:20	75.1	75.1	77.6	44	51.7	0	0	---	0.00	29.770 
18:25	75.1	75.1	77.6	45	52.3	0	0	---	0.00	29.770 
18:30	75.1	75.1	77.6	45	52.3	0	0	---	0.00	29.770 
18:35	74.9	74.9	74.9	45	52.1	0	0	---	0.00	29.770 
18:40	74.9	74.9	74.9	45	52.1	0	0	---	0.00	29.770 
18:45	74.7	74.7	74.7	46	52.5	0	0	---	0.00	29.770 
18:50	74.6	74.6	74.6	46	52.4	0	0	---	0.00	29.770 
18:55	74.4	74.4	74.4	46	52.3	0	0	---	0.00	29.770 
19:00	74.2	74.2	74.2	48	53.2	0	2	135	0.00	29.772 
19:05	73.9	73.9	73.9	48	53.0	0	0	---	0.00	29.772 
19:10	73.5	73.5	73.5	48	52.6	0	1	135	0.00	29.772 
19:15	73.2	73.2	73.2	49	52.9	0	0	---	0.00	29.770 
19:20	72.7	72.7	72.7	50	53.0	0	0	---	0.00	29.770 
19:25	72.1	72.1	72.1	51	53.0	0	1	135	0.00	29.770 
19:30	71.6	71.6	71.6	52	53.0	0	0	---	0.00	29.777 
19:35	71.1	71.1	71.1	53	53.1	0	0	---	0.00	29.777 
19:40	70.8	70.8	70.8	54	53.3	0	1	135	0.00	29.777 
19:45	70.3	70.3	70.3	55	53.4	0	0	---	0.00	29.781 
19:50	69.8	69.8	69.8	56	53.4	0	1	135	0.00	29.781 
19:55	69.4	69.4	69.4	57	53.5	0	0	---	0.00	29.781 
20:00	69.1	69.1	69.1	58	53.7	0	0	---	0.00	29.786 
20:05	68.6	68.6	68.6	58	53.2	0	1	135	0.00	29.786 
20:10	68.3	68.3	68.3	57	52.5	0	2	135	0.00	29.786 
20:15	67.9	67.9	67.9	58	52.6	0	1	135	0.00	29.792 
20:20	67.6	67.6	67.6	58	52.3	0	1	135	0.00	29.792 
20:25	67.3	67.3	67.3	58	52.0	0	1	135	0.00	29.792 
20:30	66.9	66.9	66.9	59	52.1	0	0	---	0.00	29.796 
20:35	66.6	66.6	66.6	59	51.8	0	1	135	0.00	29.796 
20:40	66.3	66.3	66.3	60	52.0	0	0	---	0.00	29.796 
20:45	66.0	66.0	66.0	61	52.2	0	2	135	0.00	29.806 
20:50	65.6	65.6	65.6	61	51.8	0	2	135	0.00	29.806 
20:55	65.5	65.5	65.5	62	52.1	0	2	135	0.00	29.806 
21:00	65.2	65.2	65.2	63	52.3	0	3	135	0.00	29.818 
21:05	64.8	64.8	64.8	64	52.3	0	2	135	0.00	29.818 
21:10	64.5	64.5	64.5	65	52.5	0	2	135	0.00	29.818 
21:15	64.2	64.2	64.2	65	52.2	0	3	135	0.00	29.824 
21:20	63.9	63.9	63.9	66	52.3	0	2	135	0.00	29.824 
21:25	63.7	63.7	63.7	66	52.1	0	2	0	0.00	29.824 
21:30	63.4	63.4	63.4	67	52.2	0	1	0	0.00	29.828 
21:35	63.2	63.2	63.2	68	52.5	0	2	0	0.00	29.828 
21:40	62.9	62.9	62.9	68	52.2	0	0	---	0.00	29.828 
21:45	62.7	62.7	62.7	69	52.4	0	1	0	0.00	29.840 
21:50	62.6	62.6	62.6	69	52.3	0	0	---	0.00	29.840 
21:55	62.3	62.3	62.3	70	52.4	0	1	0	0.00	29.840 
22:00	62.1	62.1	62.1	70	52.2	0	1	0	0.00	29.847 
22:05	62.0	62.0	62.0	71	52.5	0	1	0	0.00	29.847 
22:10	61.8	61.8	61.8	71	52.3	0	0	---	0.00	29.847 
22:15	61.8	61.8	61.8	71	52.3	0	1	0	0.00	29.851 
22:20	61.6	61.6	61.6	72	52.5	0	1	0	0.00	29.851 
22:25	61.6	61.6	61.6	72	52.5	1	6	0	0.00	29.851 
22:30	61.5	61.5	61.5	71	52.0	1	7	22	0.00	29.857 
22:35	61.3	61.3	61.3	70	51.4	1	6	90	0.00	29.857 
22:40	61.0	61.0	61.0	70	51.1	1	6	45	0.00	29.857 
22:45	60.7	60.7	60.7	70	50.9	1	7	135	0.00	29.860 
22:50	60.4	60.4	60.4	71	50.9	1	4	22	0.00	29.860 
22:55	60.1	60.1	60.1	72	51.0	1	6	68	0.00	29.860 
23:00	59.9	59.9	59.9	73	51.2	1	4	68	0.00	29.865 
23:05	59.6	59.6	59.6	73	50.9	1	4	68	0.00	29.865 
23:10	59.3	59.3	59.3	73	50.6	0	2	45	0.00	29.865 
23:15	59.0	59.0	59.0	74	50.7	1	4	135	0.00	29.857 
23:20	58.9	58.9	58.9	75	51.0	1	5	112	0.00	29.857 
23:25	58.6	58.6	58.6	75	50.7	1	3	112	0.00	29.857 
23:30	58.4	58.4	58.4	75	50.5	1	3	112	0.00	29.861 
23:35	58.3	58.3	58.3	76	50.8	2	5	135	0.00	29.861 
23:40	58.1	58.1	58.1	76	50.6	1	4	90	0.00	29.861 
23:45	58.0	58.0	58.0	76	50.5	1	3	90	0.00	29.861 
23:50	57.6	57.6	57.6	77	50.4	1	5	90	0.00	29.861 
23:55	57.5	57.5	57.5	77	50.3	0	2	90	0.00	29.861 

CoCoRaHS
IN-AL-39
A2 Web Hosting
Creative Commons License
GoDaddy
search engine by freefind advanced

loaded 2018-11-15 05:46:36 • last modified 2010-11-18 10:43:29
Privacy PolicyDisclaimer
• wx.awcolley.com is powered by PmWiki v.2002016 •
• all content (unless otherwise noted) © 2018 A W Colley